Midway, AR

4:05 PM CDT on August 29, 2016 (GMT -0500)
Chickasaw Street | | Change Station

Elev 869 ft 36.33 °N, 92.42 °W | Updated 5 minutes ago

Light Rain
Light Rain
85.8 °F
Feels Like 91 °F
N
1.2
Wind Variable Wind from East
Gusts 3.1 mph

Today
High -- | Low -- °F
--% Chance of Precip.
Yesterday
High -- | Low -- °F
Precip. -- in
Pressure 30.07 in
Visibility 10.0 miles
Clouds Scattered Clouds 4400 ft
Mostly Cloudy 11000 ft
Heat Index 91 °F
Dew Point 71 °F
Humidity 61%
Rainfall 0.01 in
Snow Depth Not available.
6:39 AM 7:41 PM
Waning Crescent, 7% visible
METAR KBPK 292053Z AUTO 09005KT 10SM -RA SCT044 BKN110 31/23 A3010 RMK AO2 LTG DSNT SE AND S RAB46 SLP181 P0000 60000 T03060228 58023
Pressure 30.07 in
Visibility 10.0 miles
Clouds Scattered Clouds 4400 ft
Mostly Cloudy 11000 ft
Heat Index 91 °F
Dew Point 71 °F
Humidity 61%
Rainfall 0.01 in
Snow Depth Not available.
6:39 AM 7:41 PM
Waning Crescent, 7% visible
METAR KBPK 292053Z AUTO 09005KT 10SM -RA SCT044 BKN110 31/23 A3010 RMK AO2 LTG DSNT SE AND S RAB46 SLP181 P0000 60000 T03060228 58023

10-Day Weather Forecast

Almanac

Astronomy

Aug. 29, 2016 Rise Set
Actual Time
Civil Twilight
Nautical Twilight
Astronomical Twilight
Moon
Length of Visible Light
Length of Day
Tomorrow will be .
, % of the Moon is Illuminated

Today's Extremes

State Highs State Lows

Community

WunderPhotos

Upload Photos

1,935,676 photos uploaded!

WunderBlog® & News

Nearby

Air Quality

  Air Quality AQ Index Pollutant
Not available.

Snow Depth

Station Depth Elevation

Earthquake Activity

City Distance Mag. Time & Date
Minimum magnitude displayed is 2.5.

Coastal Water Temperatures

Place Temperature

Stations

Nearby Weather Stations

Station Location Temp. Windchill Dew Point Humidity Wind Precip. Elev Updated Type
                   

Watches & Warnings

There are currently no watches in effect.